Time;durP1;ratioP1;P1;durP2;ratioP2;P2;SDS_P1;SDS_P2;PMS_P1;PMS_P2;Temp;Humidity;BMP_temperature;BMP_pressure;BME280_temperature;BME280_humidity;BME280_pressure;Samples;Min_cycle;Max_cycle;Signal;HPM_P1;HPM_P2
2020/11/16 00:00:12;;;;;;;6.1;3.9;;;;;;;8.09;66.49121;94792.89;;;;
2020/11/16 00:01:13;;;;;;;6.1;3.9;;;;;;;8.09;66.49121;94792.89;;;;
2020/11/16 00:02:14;;;;;;;6.1;3.9;;;;;;;8.09;66.49121;94792.89;;;;
2020/11/16 00:03:14;;;;;;;6.1;3.9;;;;;;;8.09;66.49121;94792.89;;;;
2020/11/16 00:04:15;;;;;;;6.1;3.9;;;;;;;8.09;66.49121;94792.89;;;;
2020/11/16 00:05:15;;;;;;;7.799999;3.3;;;;;;;8.65;66.81348;94765.7;;;;
2020/11/16 00:06:16;;;;;;;7.799999;3.3;;;;;;;8.65;66.81348;94765.7;;;;
2020/11/16 00:07:16;;;;;;;7.799999;3.3;;;;;;;8.65;66.81348;94765.7;;;;
2020/11/16 00:08:17;;;;;;;7.799999;3.3;;;;;;;8.65;66.81348;94765.7;;;;
2020/11/16 00:09:17;;;;;;;7.799999;3.3;;;;;;;8.65;66.81348;94765.7;;;;
2020/11/16 00:10:18;;;;;;;7.799999;3.3;;;;;;;8.65;66.81348;94765.7;;;;
2020/11/16 00:11:18;;;;;;;7.799999;3.3;;;;;;;8.65;66.81348;94765.7;;;;
2020/11/16 00:12:19;;;;;;;7.799999;3.3;;;;;;;8.65;66.81348;94765.7;;;;
2020/11/16 00:13:19;;;;;;;7.799999;3.3;;;;;;;8.65;66.81348;94765.7;;;;
2020/11/16 00:14:20;;;;;;;7.799999;3.3;;;;;;;8.65;66.81348;94765.7;;;;
2020/11/16 00:15:20;;;;;;;7.799999;3.3;;;;;;;8.65;66.81348;94765.7;;;;
2020/11/16 00:16:21;;;;;;;7.549999;3.35;;;;;;;9.04;67.28906;94768.66;;;;
2020/11/16 00:17:21;;;;;;;7.549999;3.35;;;;;;;9.04;67.28906;94768.66;;;;
2020/11/16 00:18:22;;;;;;;7.549999;3.35;;;;;;;9.04;67.28906;94768.66;;;;
2020/11/16 00:19:22;;;;;;;7.549999;3.35;;;;;;;9.04;67.28906;94768.66;;;;
2020/11/16 00:20:23;;;;;;;7.549999;3.35;;;;;;;9.04;67.28906;94768.66;;;;
2020/11/16 00:21:23;;;;;;;7.549999;3.35;;;;;;;9.04;67.28906;94768.66;;;;
2020/11/16 00:22:24;;;;;;;7.549999;3.35;;;;;;;9.04;67.28906;94768.66;;;;
2020/11/16 00:23:24;;;;;;;7.549999;3.35;;;;;;;9.04;67.28906;94768.66;;;;
2020/11/16 00:24:25;;;;;;;7.549999;3.35;;;;;;;9.04;67.28906;94768.66;;;;
2020/11/16 00:25:26;;;;;;;7.549999;3.35;;;;;;;9.04;67.28906;94768.66;;;;
2020/11/16 00:26:26;;;;;;;7.549999;3.35;;;;;;;9.04;67.28906;94768.66;;;;
2020/11/16 00:27:27;;;;;;;4.450001;2.85;;;;;;;9.38;67.69434;94762.73;;;;
2020/11/16 00:28:27;;;;;;;4.450001;2.85;;;;;;;9.38;67.69434;94762.73;;;;
2020/11/16 00:29:28;;;;;;;4.450001;2.85;;;;;;;9.38;67.69434;94762.73;;;;
2020/11/16 00:30:28;;;;;;;4.450001;2.85;;;;;;;9.38;67.69434;94762.73;;;;
2020/11/16 00:31:29;;;;;;;4.450001;2.85;;;;;;;9.38;67.69434;94762.73;;;;
2020/11/16 00:32:29;;;;;;;4.450001;2.85;;;;;;;9.38;67.69434;94762.73;;;;
2020/11/16 00:33:29;;;;;;;4.450001;2.85;;;;;;;9.38;67.69434;94762.73;;;;
2020/11/16 00:34:30;;;;;;;4.450001;2.85;;;;;;;9.38;67.69434;94762.73;;;;
2020/11/16 00:35:30;;;;;;;4.450001;2.85;;;;;;;9.38;67.69434;94762.73;;;;
2020/11/16 00:36:31;;;;;;;4.450001;2.85;;;;;;;9.38;67.69434;94762.73;;;;
2020/11/16 00:37:32;;;;;;;4;3.2;;;;;;;9.58;68.1123;94764.47;;;;
2020/11/16 00:38:32;;;;;;;4;3.2;;;;;;;9.58;68.1123;94764.47;;;;
2020/11/16 00:39:33;;;;;;;4;3.2;;;;;;;9.58;68.1123;94764.47;;;;
2020/11/16 00:40:33;;;;;;;4;3.2;;;;;;;9.58;68.1123;94764.47;;;;
2020/11/16 00:41:34;;;;;;;4;3.2;;;;;;;9.58;68.1123;94764.47;;;;
2020/11/16 00:42:34;;;;;;;4;3.2;;;;;;;9.58;68.1123;94764.47;;;;
2020/11/16 00:43:35;;;;;;;4;3.2;;;;;;;9.58;68.1123;94764.47;;;;
2020/11/16 00:44:35;;;;;;;4;3.2;;;;;;;9.58;68.1123;94764.47;;;;
2020/11/16 00:45:35;;;;;;;4;3.2;;;;;;;9.58;68.1123;94764.47;;;;
2020/11/16 00:46:36;;;;;;;4;3.2;;;;;;;9.58;68.1123;94764.47;;;;
2020/11/16 00:47:36;;;;;;;4;3.2;;;;;;;9.58;68.1123;94764.47;;;;
2020/11/16 00:48:37;;;;;;;6.45;3.5;;;;;;;9.87;68.66016;94768.34;;;;
2020/11/16 00:49:38;;;;;;;6.45;3.5;;;;;;;9.87;68.66016;94768.34;;;;
2020/11/16 00:50:38;;;;;;;6.45;3.5;;;;;;;9.87;68.66016;94768.34;;;;
2020/11/16 00:51:39;;;;;;;6.45;3.5;;;;;;;9.87;68.66016;94768.34;;;;
2020/11/16 00:52:39;;;;;;;6.45;3.5;;;;;;;9.87;68.66016;94768.34;;;;
2020/11/16 00:53:40;;;;;;;6.45;3.5;;;;;;;9.87;68.66016;94768.34;;;;
2020/11/16 00:54:40;;;;;;;6.45;3.5;;;;;;;9.87;68.66016;94768.34;;;;
2020/11/16 00:55:41;;;;;;;6.45;3.5;;;;;;;9.87;68.66016;94768.34;;;;
2020/11/16 00:56:41;;;;;;;6.45;3.5;;;;;;;9.87;68.66016;94768.34;;;;
2020/11/16 00:57:42;;;;;;;6.45;3.5;;;;;;;9.87;68.66016;94768.34;;;;
2020/11/16 00:58:42;;;;;;;4.3;3;;;;;;;10;68.78809;94769.76;;;;
2020/11/16 00:59:43;;;;;;;4.3;3;;;;;;;10;68.78809;94769.76;;;;
2020/11/16 01:00:43;;;;;;;4.3;3;;;;;;;10;68.78809;94769.76;;;;
2020/11/16 01:01:44;;;;;;;4.3;3;;;;;;;10;68.78809;94769.76;;;;
2020/11/16 01:02:44;;;;;;;4.3;3;;;;;;;10;68.78809;94769.76;;;;
2020/11/16 01:03:45;;;;;;;4.3;3;;;;;;;10;68.78809;94769.76;;;;
2020/11/16 01:04:45;;;;;;;4.3;3;;;;;;;10;68.78809;94769.76;;;;
2020/11/16 01:05:46;;;;;;;4.3;3;;;;;;;10;68.78809;94769.76;;;;
2020/11/16 01:06:46;;;;;;;4.3;3;;;;;;;10;68.78809;94769.76;;;;
2020/11/16 01:07:47;;;;;;;4.3;3;;;;;;;10;68.78809;94769.76;;;;
2020/11/16 01:08:47;;;;;;;4.3;3;;;;;;;10;68.78809;94769.76;;;;
2020/11/16 01:09:48;;;;;;;5.25;2.8;;;;;;;10.21;69.36621;94782.68;;;;
2020/11/16 01:10:48;;;;;;;5.25;2.8;;;;;;;10.21;69.36621;94782.68;;;;
2020/11/16 01:11:49;;;;;;;5.25;2.8;;;;;;;10.21;69.36621;94782.68;;;;
2020/11/16 01:12:49;;;;;;;5.25;2.8;;;;;;;10.21;69.36621;94782.68;;;;
2020/11/16 01:13:50;;;;;;;5.25;2.8;;;;;;;10.21;69.36621;94782.68;;;;
2020/11/16 01:14:51;;;;;;;5.25;2.8;;;;;;;10.21;69.36621;94782.68;;;;
2020/11/16 01:15:51;;;;;;;5.25;2.8;;;;;;;10.21;69.36621;94782.68;;;;
2020/11/16 01:16:52;;;;;;;5.25;2.8;;;;;;;10.21;69.36621;94782.68;;;;
2020/11/16 01:17:52;;;;;;;5.25;2.8;;;;;;;10.21;69.36621;94782.68;;;;
2020/11/16 01:18:53;;;;;;;5.25;2.8;;;;;;;10.21;69.36621;94782.68;;;;
2020/11/16 01:19:54;;;;;;;2.8;2.5;;;;;;;10.52;69.83496;94788.7;;;;
2020/11/16 01:20:54;;;;;;;2.8;2.5;;;;;;;10.52;69.83496;94788.7;;;;
2020/11/16 01:21:56;;;;;;;2.8;2.5;;;;;;;10.52;69.83496;94788.7;;;;
2020/11/16 01:22:56;;;;;;;2.8;2.5;;;;;;;10.52;69.83496;94788.7;;;;
2020/11/16 01:23:57;;;;;;;2.8;2.5;;;;;;;10.52;69.83496;94788.7;;;;
2020/11/16 01:24:57;;;;;;;2.8;2.5;;;;;;;10.52;69.83496;94788.7;;;;
2020/11/16 01:25:58;;;;;;;2.8;2.5;;;;;;;10.52;69.83496;94788.7;;;;
2020/11/16 01:26:58;;;;;;;2.8;2.5;;;;;;;10.52;69.83496;94788.7;;;;
2020/11/16 01:27:59;;;;;;;2.8;2.5;;;;;;;10.52;69.83496;94788.7;;;;
2020/11/16 01:28:59;;;;;;;2.8;2.5;;;;;;;10.52;69.83496;94788.7;;;;
2020/11/16 01:30:00;;;;;;;2.8;2.5;;;;;;;10.52;69.83496;94788.7;;;;
2020/11/16 01:31:00;;;;;;;3.25;2.55;;;;;;;10.93;69.94238;94797.8;;;;
2020/11/16 01:32:01;;;;;;;3.25;2.55;;;;;;;10.93;69.94238;94797.8;;;;
2020/11/16 01:33:01;;;;;;;3.25;2.55;;;;;;;10.93;69.94238;94797.8;;;;
2020/11/16 01:34:02;;;;;;;3.25;2.55;;;;;;;10.93;69.94238;94797.8;;;;
2020/11/16 01:35:03;;;;;;;3.25;2.55;;;;;;;10.93;69.94238;94797.8;;;;
2020/11/16 01:36:03;;;;;;;3.25;2.55;;;;;;;10.93;69.94238;94797.8;;;;
2020/11/16 01:37:04;;;;;;;3.25;2.55;;;;;;;10.93;69.94238;94797.8;;;;
2020/11/16 01:38:04;;;;;;;3.25;2.55;;;;;;;10.93;69.94238;94797.8;;;;
2020/11/16 01:39:05;;;;;;;3.25;2.55;;;;;;;10.93;69.94238;94797.8;;;;
2020/11/16 01:40:05;;;;;;;3.25;2.55;;;;;;;10.93;69.94238;94797.8;;;;
2020/11/16 01:41:06;;;;;;;3.25;2.55;;;;;;;10.93;69.94238;94797.8;;;;
2020/11/16 01:42:07;;;;;;;6.350001;2.5;;;;;;;11.24;69.90625;94800.22;;;;
2020/11/16 01:43:07;;;;;;;6.350001;2.5;;;;;;;11.24;69.90625;94800.22;;;;
2020/11/16 01:44:08;;;;;;;6.350001;2.5;;;;;;;11.24;69.90625;94800.22;;;;
2020/11/16 01:45:08;;;;;;;6.350001;2.5;;;;;;;11.24;69.90625;94800.22;;;;
2020/11/16 01:46:09;;;;;;;6.350001;2.5;;;;;;;11.24;69.90625;94800.22;;;;
2020/11/16 01:47:10;;;;;;;6.350001;2.5;;;;;;;11.24;69.90625;94800.22;;;;
2020/11/16 01:48:11;;;;;;;6.350001;2.5;;;;;;;11.24;69.90625;94800.22;;;;
2020/11/16 01:49:12;;;;;;;6.350001;2.5;;;;;;;11.24;69.90625;94800.22;;;;
2020/11/16 01:50:13;;;;;;;6.350001;2.5;;;;;;;11.24;69.90625;94800.22;;;;
2020/11/16 01:51:13;;;;;;;6.350001;2.5;;;;;;;11.24;69.90625;94800.22;;;;
2020/11/16 01:52:14;;;;;;;3.6;2.3;;;;;;;11.55;69.54785;94810.85;;;;
2020/11/16 01:53:14;;;;;;;3.6;2.3;;;;;;;11.55;69.54785;94810.85;;;;
2020/11/16 01:54:15;;;;;;;3.6;2.3;;;;;;;11.55;69.54785;94810.85;;;;
2020/11/16 01:55:15;;;;;;;3.6;2.3;;;;;;;11.55;69.54785;94810.85;;;;
2020/11/16 01:56:16;;;;;;;3.6;2.3;;;;;;;11.55;69.54785;94810.85;;;;
2020/11/16 01:57:16;;;;;;;3.6;2.3;;;;;;;11.55;69.54785;94810.85;;;;
2020/11/16 01:58:17;;;;;;;3.6;2.3;;;;;;;11.55;69.54785;94810.85;;;;
2020/11/16 01:59:17;;;;;;;3.6;2.3;;;;;;;11.55;69.54785;94810.85;;;;
2020/11/16 02:00:18;;;;;;;3.6;2.3;;;;;;;11.55;69.54785;94810.85;;;;
2020/11/16 02:01:18;;;;;;;3.6;2.3;;;;;;;11.55;69.54785;94810.85;;;;
2020/11/16 02:02:19;;;;;;;3.6;2.3;;;;;;;11.55;69.54785;94810.85;;;;
2020/11/16 02:03:19;;;;;;;3.4;2.2;;;;;;;11.64;69.78711;94822.47;;;;
2020/11/16 02:04:20;;;;;;;3.4;2.2;;;;;;;11.64;69.78711;94822.47;;;;
2020/11/16 02:05:20;;;;;;;3.4;2.2;;;;;;;11.64;69.78711;94822.47;;;;
2020/11/16 02:06:21;;;;;;;3.4;2.2;;;;;;;11.64;69.78711;94822.47;;;;
2020/11/16 02:07:22;;;;;;;3.4;2.2;;;;;;;11.64;69.78711;94822.47;;;;
2020/11/16 02:08:24;;;;;;;3.4;2.2;;;;;;;11.64;69.78711;94822.47;;;;
2020/11/16 02:09:24;;;;;;;3.4;2.2;;;;;;;11.64;69.78711;94822.47;;;;
2020/11/16 02:10:25;;;;;;;3.4;2.2;;;;;;;11.64;69.78711;94822.47;;;;
2020/11/16 02:11:25;;;;;;;3.4;2.2;;;;;;;11.64;69.78711;94822.47;;;;
2020/11/16 02:12:26;;;;;;;3.4;2.2;;;;;;;11.64;69.78711;94822.47;;;;
2020/11/16 02:13:26;;;;;;;1.75;1.65;;;;;;;11.78;69.63867;94832.26;;;;
2020/11/16 02:14:27;;;;;;;1.75;1.65;;;;;;;11.78;69.63867;94832.26;;;;
2020/11/16 02:15:27;;;;;;;1.75;1.65;;;;;;;11.78;69.63867;94832.26;;;;
2020/11/16 02:16:28;;;;;;;1.75;1.65;;;;;;;11.78;69.63867;94832.26;;;;
2020/11/16 02:17:28;;;;;;;1.75;1.65;;;;;;;11.78;69.63867;94832.26;;;;
2020/11/16 02:18:29;;;;;;;1.75;1.65;;;;;;;11.78;69.63867;94832.26;;;;
2020/11/16 02:19:29;;;;;;;1.75;1.65;;;;;;;11.78;69.63867;94832.26;;;;
2020/11/16 02:20:30;;;;;;;1.75;1.65;;;;;;;11.78;69.63867;94832.26;;;;
2020/11/16 02:21:30;;;;;;;1.75;1.65;;;;;;;11.78;69.63867;94832.26;;;;
2020/11/16 02:22:31;;;;;;;1.75;1.65;;;;;;;11.78;69.63867;94832.26;;;;
2020/11/16 02:23:31;;;;;;;1.75;1.65;;;;;;;11.78;69.63867;94832.26;;;;
2020/11/16 02:24:32;;;;;;;1.5;1.4;;;;;;;11.86;69.46777;94835.85;;;;
2020/11/16 02:25:32;;;;;;;1.5;1.4;;;;;;;11.86;69.46777;94835.85;;;;
2020/11/16 02:26:34;;;;;;;1.5;1.4;;;;;;;11.86;69.46777;94835.85;;;;
2020/11/16 02:27:34;;;;;;;1.5;1.4;;;;;;;11.86;69.46777;94835.85;;;;
2020/11/16 02:28:35;;;;;;;1.5;1.4;;;;;;;11.86;69.46777;94835.85;;;;
2020/11/16 02:29:35;;;;;;;1.5;1.4;;;;;;;11.86;69.46777;94835.85;;;;
2020/11/16 02:30:36;;;;;;;1.5;1.4;;;;;;;11.86;69.46777;94835.85;;;;
2020/11/16 02:31:36;;;;;;;1.5;1.4;;;;;;;11.86;69.46777;94835.85;;;;
2020/11/16 02:32:37;;;;;;;1.5;1.4;;;;;;;11.86;69.46777;94835.85;;;;
2020/11/16 02:33:38;;;;;;;1.5;1.4;;;;;;;11.86;69.46777;94835.85;;;;
2020/11/16 02:34:38;;;;;;;1.9;1.4;;;;;;;12.1;69.19336;94860.72;;;;
2020/11/16 02:35:39;;;;;;;1.9;1.4;;;;;;;12.1;69.19336;94860.72;;;;
2020/11/16 02:36:39;;;;;;;1.9;1.4;;;;;;;12.1;69.19336;94860.72;;;;
2020/11/16 02:37:40;;;;;;;1.9;1.4;;;;;;;12.1;69.19336;94860.72;;;;
2020/11/16 02:38:40;;;;;;;1.9;1.4;;;;;;;12.1;69.19336;94860.72;;;;
2020/11/16 02:39:41;;;;;;;1.9;1.4;;;;;;;12.1;69.19336;94860.72;;;;
2020/11/16 02:40:41;;;;;;;1.9;1.4;;;;;;;12.1;69.19336;94860.72;;;;
2020/11/16 02:41:42;;;;;;;1.9;1.4;;;;;;;12.1;69.19336;94860.72;;;;
2020/11/16 02:42:42;;;;;;;1.9;1.4;;;;;;;12.1;69.19336;94860.72;;;;
2020/11/16 02:43:43;;;;;;;1.9;1.4;;;;;;;12.1;69.19336;94860.72;;;;
2020/11/16 02:44:43;;;;;;;1.9;1.4;;;;;;;12.1;69.19336;94860.72;;;;
2020/11/16 02:45:44;;;;;;;1.4;1.3;;;;;;;12.2;69.33887;94864.34;;;;
2020/11/16 02:46:45;;;;;;;1.4;1.3;;;;;;;12.2;69.33887;94864.34;;;;
2020/11/16 02:47:45;;;;;;;1.4;1.3;;;;;;;12.2;69.33887;94864.34;;;;
2020/11/16 02:48:46;;;;;;;1.4;1.3;;;;;;;12.2;69.33887;94864.34;;;;
2020/11/16 02:49:47;;;;;;;1.4;1.3;;;;;;;12.2;69.33887;94864.34;;;;
2020/11/16 02:50:47;;;;;;;1.4;1.3;;;;;;;12.2;69.33887;94864.34;;;;
2020/11/16 02:51:48;;;;;;;1.4;1.3;;;;;;;12.2;69.33887;94864.34;;;;
2020/11/16 02:52:48;;;;;;;1.4;1.3;;;;;;;12.2;69.33887;94864.34;;;;
2020/11/16 02:53:49;;;;;;;1.4;1.3;;;;;;;12.2;69.33887;94864.34;;;;
2020/11/16 02:54:49;;;;;;;1.4;1.3;;;;;;;12.2;69.33887;94864.34;;;;
2020/11/16 02:55:50;;;;;;;1.4;1.3;;;;;;;12.2;69.33887;94864.34;;;;
2020/11/16 02:56:50;;;;;;;1.75;1.2;;;;;;;12.39;69.02344;94877.92;;;;
2020/11/16 02:57:51;;;;;;;1.75;1.2;;;;;;;12.39;69.02344;94877.92;;;;
2020/11/16 02:58:51;;;;;;;1.75;1.2;;;;;;;12.39;69.02344;94877.92;;;;
2020/11/16 02:59:52;;;;;;;1.75;1.2;;;;;;;12.39;69.02344;94877.92;;;;
2020/11/16 03:00:52;;;;;;;1.75;1.2;;;;;;;12.39;69.02344;94877.92;;;;
2020/11/16 03:01:53;;;;;;;1.75;1.2;;;;;;;12.39;69.02344;94877.92;;;;
2020/11/16 03:02:53;;;;;;;1.75;1.2;;;;;;;12.39;69.02344;94877.92;;;;
2020/11/16 03:03:54;;;;;;;1.75;1.2;;;;;;;12.39;69.02344;94877.92;;;;
2020/11/16 03:04:54;;;;;;;1.75;1.2;;;;;;;12.39;69.02344;94877.92;;;;
2020/11/16 03:05:55;;;;;;;1.75;1.2;;;;;;;12.39;69.02344;94877.92;;;;
2020/11/16 03:06:55;;;;;;;2;1.2;;;;;;;12.21;68.93164;94887.65;;;;
2020/11/16 03:07:56;;;;;;;2;1.2;;;;;;;12.21;68.93164;94887.65;;;;
2020/11/16 03:08:57;;;;;;;2;1.2;;;;;;;12.21;68.93164;94887.65;;;;
2020/11/16 03:09:57;;;;;;;2;1.2;;;;;;;12.21;68.93164;94887.65;;;;
2020/11/16 03:10:58;;;;;;;2;1.2;;;;;;;12.21;68.93164;94887.65;;;;
2020/11/16 03:11:58;;;;;;;2;1.2;;;;;;;12.21;68.93164;94887.65;;;;
2020/11/16 03:12:59;;;;;;;2;1.2;;;;;;;12.21;68.93164;94887.65;;;;
2020/11/16 03:13:59;;;;;;;2;1.2;;;;;;;12.21;68.93164;94887.65;;;;
2020/11/16 03:15:00;;;;;;;2;1.2;;;;;;;12.21;68.93164;94887.65;;;;
2020/11/16 03:16:00;;;;;;;2;1.2;;;;;;;12.21;68.93164;94887.65;;;;
2020/11/16 03:17:01;;;;;;;2;1.2;;;;;;;12.21;68.93164;94887.65;;;;
2020/11/16 03:18:02;;;;;;;1.2;1.1;;;;;;;11.77;71.04297;94894.17;;;;
2020/11/16 03:19:02;;;;;;;1.2;1.1;;;;;;;11.77;71.04297;94894.17;;;;
2020/11/16 03:20:03;;;;;;;1.2;1.1;;;;;;;11.77;71.04297;94894.17;;;;
2020/11/16 03:21:03;;;;;;;1.2;1.1;;;;;;;11.77;71.04297;94894.17;;;;
2020/11/16 03:22:04;;;;;;;1.2;1.1;;;;;;;11.77;71.04297;94894.17;;;;
2020/11/16 03:23:05;;;;;;;1.2;1.1;;;;;;;11.77;71.04297;94894.17;;;;
2020/11/16 03:24:06;;;;;;;1.2;1.1;;;;;;;11.77;71.04297;94894.17;;;;
2020/11/16 03:25:06;;;;;;;1.2;1.1;;;;;;;11.77;71.04297;94894.17;;;;
2020/11/16 03:26:07;;;;;;;1.2;1.1;;;;;;;11.77;71.04297;94894.17;;;;
2020/11/16 03:27:09;;;;;;;1.2;1.1;;;;;;;11.77;71.04297;94894.17;;;;
2020/11/16 03:28:10;;;;;;;1.25;1.15;;;;;;;11.3;71.62305;94899.22;;;;
2020/11/16 03:29:10;;;;;;;1.25;1.15;;;;;;;11.3;71.62305;94899.22;;;;
2020/11/16 03:30:11;;;;;;;1.25;1.15;;;;;;;11.3;71.62305;94899.22;;;;
2020/11/16 03:31:11;;;;;;;1.25;1.15;;;;;;;11.3;71.62305;94899.22;;;;
2020/11/16 03:32:12;;;;;;;1.25;1.15;;;;;;;11.3;71.62305;94899.22;;;;
2020/11/16 03:33:13;;;;;;;1.25;1.15;;;;;;;11.3;71.62305;94899.22;;;;
2020/11/16 03:34:15;;;;;;;1.25;1.15;;;;;;;11.3;71.62305;94899.22;;;;
2020/11/16 03:35:15;;;;;;;1.25;1.15;;;;;;;11.3;71.62305;94899.22;;;;
2020/11/16 03:36:16;;;;;;;1.25;1.15;;;;;;;11.3;71.62305;94899.22;;;;
2020/11/16 03:37:17;;;;;;;1.25;1.15;;;;;;;11.3;71.62305;94899.22;;;;
2020/11/16 03:38:17;;;;;;;1.25;1.15;;;;;;;11.3;71.62305;94899.22;;;;
2020/11/16 03:39:18;;;;;;;2.05;1.2;;;;;;;11.03;73.14258;94909.62;;;;
2020/11/16 03:40:18;;;;;;;2.05;1.2;;;;;;;11.03;73.14258;94909.62;;;;
2020/11/16 03:41:19;;;;;;;2.05;1.2;;;;;;;11.03;73.14258;94909.62;;;;
2020/11/16 03:42:20;;;;;;;2.05;1.2;;;;;;;11.03;73.14258;94909.62;;;;
2020/11/16 03:43:20;;;;;;;2.05;1.2;;;;;;;11.03;73.14258;94909.62;;;;
2020/11/16 03:44:21;;;;;;;2.05;1.2;;;;;;;11.03;73.14258;94909.62;;;;
2020/11/16 03:45:21;;;;;;;2.05;1.2;;;;;;;11.03;73.14258;94909.62;;;;
2020/11/16 03:46:22;;;;;;;2.05;1.2;;;;;;;11.03;73.14258;94909.62;;;;
2020/11/16 03:47:22;;;;;;;2.05;1.2;;;;;;;11.03;73.14258;94909.62;;;;
2020/11/16 03:48:23;;;;;;;2.05;1.2;;;;;;;11.03;73.14258;94909.62;;;;
2020/11/16 03:49:23;;;;;;;1.1;1;;;;;;;10.81;73.92969;94935.77;;;;
2020/11/16 03:50:24;;;;;;;1.1;1;;;;;;;10.81;73.92969;94935.77;;;;
2020/11/16 03:51:24;;;;;;;1.1;1;;;;;;;10.81;73.92969;94935.77;;;;
2020/11/16 03:52:25;;;;;;;1.1;1;;;;;;;10.81;73.92969;94935.77;;;;
2020/11/16 03:53:25;;;;;;;1.1;1;;;;;;;10.81;73.92969;94935.77;;;;
2020/11/16 03:54:26;;;;;;;1.1;1;;;;;;;10.81;73.92969;94935.77;;;;
2020/11/16 03:55:26;;;;;;;1.1;1;;;;;;;10.81;73.92969;94935.77;;;;
2020/11/16 03:56:27;;;;;;;1.1;1;;;;;;;10.81;73.92969;94935.77;;;;
2020/11/16 03:57:27;;;;;;;1.1;1;;;;;;;10.81;73.92969;94935.77;;;;
2020/11/16 03:58:28;;;;;;;1.1;1;;;;;;;10.81;73.92969;94935.77;;;;
2020/11/16 03:59:28;;;;;;;1.1;1;;;;;;;10.81;73.92969;94935.77;;;;
2020/11/16 04:00:29;;;;;;;1.75;1.2;;;;;;;10.65;75.88184;94954.92;;;;
2020/11/16 04:01:30;;;;;;;1.75;1.2;;;;;;;10.65;75.88184;94954.92;;;;
2020/11/16 04:02:30;;;;;;;1.75;1.2;;;;;;;10.65;75.88184;94954.92;;;;
2020/11/16 04:03:31;;;;;;;1.75;1.2;;;;;;;10.65;75.88184;94954.92;;;;
2020/11/16 04:04:31;;;;;;;1.75;1.2;;;;;;;10.65;75.88184;94954.92;;;;
2020/11/16 04:05:31;;;;;;;1.75;1.2;;;;;;;10.65;75.88184;94954.92;;;;
2020/11/16 04:06:32;;;;;;;1.75;1.2;;;;;;;10.65;75.88184;94954.92;;;;
2020/11/16 04:07:33;;;;;;;1.75;1.2;;;;;;;10.65;75.88184;94954.92;;;;
2020/11/16 04:08:33;;;;;;;1.75;1.2;;;;;;;10.65;75.88184;94954.92;;;;
2020/11/16 04:09:34;;;;;;;1.75;1.2;;;;;;;10.65;75.88184;94954.92;;;;
2020/11/16 04:10:34;;;;;;;1.75;1.1;;;;;;;10.39;76.44727;94956.39;;;;
2020/11/16 04:11:35;;;;;;;1.75;1.1;;;;;;;10.39;76.44727;94956.39;;;;
2020/11/16 04:12:35;;;;;;;1.75;1.1;;;;;;;10.39;76.44727;94956.39;;;;
2020/11/16 04:13:36;;;;;;;1.75;1.1;;;;;;;10.39;76.44727;94956.39;;;;
2020/11/16 04:14:37;;;;;;;1.75;1.1;;;;;;;10.39;76.44727;94956.39;;;;
2020/11/16 04:15:37;;;;;;;1.75;1.1;;;;;;;10.39;76.44727;94956.39;;;;
2020/11/16 04:16:38;;;;;;;1.75;1.1;;;;;;;10.39;76.44727;94956.39;;;;
2020/11/16 04:17:38;;;;;;;1.75;1.1;;;;;;;10.39;76.44727;94956.39;;;;
2020/11/16 04:18:39;;;;;;;1.75;1.1;;;;;;;10.39;76.44727;94956.39;;;;
2020/11/16 04:19:39;;;;;;;1.75;1.1;;;;;;;10.39;76.44727;94956.39;;;;
2020/11/16 04:20:40;;;;;;;1.75;1.1;;;;;;;10.39;76.44727;94956.39;;;;
2020/11/16 04:21:41;;;;;;;1.7;1.2;;;;;;;10.22;77.14453;94957.79;;;;
2020/11/16 04:22:41;;;;;;;1.7;1.2;;;;;;;10.22;77.14453;94957.79;;;;
2020/11/16 04:23:42;;;;;;;1.7;1.2;;;;;;;10.22;77.14453;94957.79;;;;
2020/11/16 04:24:42;;;;;;;1.7;1.2;;;;;;;10.22;77.14453;94957.79;;;;
2020/11/16 04:25:43;;;;;;;1.7;1.2;;;;;;;10.22;77.14453;94957.79;;;;
2020/11/16 04:26:43;;;;;;;1.7;1.2;;;;;;;10.22;77.14453;94957.79;;;;
2020/11/16 04:27:44;;;;;;;1.7;1.2;;;;;;;10.22;77.14453;94957.79;;;;
2020/11/16 04:28:44;;;;;;;1.7;1.2;;;;;;;10.22;77.14453;94957.79;;;;
2020/11/16 04:29:45;;;;;;;1.7;1.2;;;;;;;10.22;77.14453;94957.79;;;;
2020/11/16 04:30:45;;;;;;;1.7;1.2;;;;;;;10.22;77.14453;94957.79;;;;
2020/11/16 04:31:46;;;;;;;1.7;1.2;;;;;;;10.22;77.14453;94957.79;;;;
2020/11/16 04:32:46;;;;;;;1.1;1;;;;;;;10.03;77.30273;94964.42;;;;
2020/11/16 04:33:47;;;;;;;1.1;1;;;;;;;10.03;77.30273;94964.42;;;;
2020/11/16 04:34:47;;;;;;;1.1;1;;;;;;;10.03;77.30273;94964.42;;;;
2020/11/16 04:35:48;;;;;;;1.1;1;;;;;;;10.03;77.30273;94964.42;;;;
2020/11/16 04:36:48;;;;;;;1.1;1;;;;;;;10.03;77.30273;94964.42;;;;
2020/11/16 04:37:49;;;;;;;1.1;1;;;;;;;10.03;77.30273;94964.42;;;;
2020/11/16 04:38:49;;;;;;;1.1;1;;;;;;;10.03;77.30273;94964.42;;;;
2020/11/16 04:39:50;;;;;;;1.1;1;;;;;;;10.03;77.30273;94964.42;;;;
2020/11/16 04:40:50;;;;;;;1.1;1;;;;;;;10.03;77.30273;94964.42;;;;
2020/11/16 04:41:51;;;;;;;1.1;1;;;;;;;10.03;77.30273;94964.42;;;;
2020/11/16 04:42:51;;;;;;;1.2;1.1;;;;;;;9.95;78.6543;94987.71;;;;
2020/11/16 04:43:52;;;;;;;1.2;1.1;;;;;;;9.95;78.6543;94987.71;;;;
2020/11/16 04:44:52;;;;;;;1.2;1.1;;;;;;;9.95;78.6543;94987.71;;;;
2020/11/16 04:45:53;;;;;;;1.2;1.1;;;;;;;9.95;78.6543;94987.71;;;;
2020/11/16 04:46:55;;;;;;;1.2;1.1;;;;;;;9.95;78.6543;94987.71;;;;
2020/11/16 04:47:56;;;;;;;1.2;1.1;;;;;;;9.95;78.6543;94987.71;;;;
2020/11/16 04:48:56;;;;;;;1.2;1.1;;;;;;;9.95;78.6543;94987.71;;;;
2020/11/16 04:49:57;;;;;;;1.2;1.1;;;;;;;9.95;78.6543;94987.71;;;;
2020/11/16 04:50:57;;;;;;;1.2;1.1;;;;;;;9.95;78.6543;94987.71;;;;
2020/11/16 04:51:58;;;;;;;1.2;1.1;;;;;;;9.95;78.6543;94987.71;;;;
2020/11/16 04:52:58;;;;;;;1.2;1.1;;;;;;;9.95;78.6543;94987.71;;;;
2020/11/16 04:53:59;;;;;;;1.2;1.1;;;;;;;9.85;79.41406;95008.15;;;;
2020/11/16 04:54:59;;;;;;;1.2;1.1;;;;;;;9.85;79.41406;95008.15;;;;
2020/11/16 04:56:00;;;;;;;1.2;1.1;;;;;;;9.85;79.41406;95008.15;;;;
2020/11/16 04:57:01;;;;;;;1.2;1.1;;;;;;;9.85;79.41406;95008.15;;;;
2020/11/16 04:58:01;;;;;;;1.2;1.1;;;;;;;9.85;79.41406;95008.15;;;;
2020/11/16 04:59:02;;;;;;;1.2;1.1;;;;;;;9.85;79.41406;95008.15;;;;
2020/11/16 05:00:02;;;;;;;1.2;1.1;;;;;;;9.85;79.41406;95008.15;;;;
2020/11/16 05:01:04;;;;;;;1.2;1.1;;;;;;;9.85;79.41406;95008.15;;;;
2020/11/16 05:02:05;;;;;;;1.2;1.1;;;;;;;9.85;79.41406;95008.15;;;;
2020/11/16 05:03:11;;;;;;;1.2;1.1;;;;;;;9.85;79.41406;95008.15;;;;
2020/11/16 05:04:11;;;;;;;1.1;1;;;;;;;9.84;79.91406;95024.96;;;;
2020/11/16 05:05:13;;;;;;;1.1;1;;;;;;;9.84;79.91406;95024.96;;;;
2020/11/16 05:06:13;;;;;;;1.1;1;;;;;;;9.84;79.91406;95024.96;;;;
2020/11/16 05:07:14;;;;;;;1.1;1;;;;;;;9.84;79.91406;95024.96;;;;
2020/11/16 05:08:16;;;;;;;1.1;1;;;;;;;9.84;79.91406;95024.96;;;;
2020/11/16 05:09:18;;;;;;;1.1;1;;;;;;;9.84;79.91406;95024.96;;;;
2020/11/16 05:10:20;;;;;;;1.1;1;;;;;;;9.84;79.91406;95024.96;;;;
2020/11/16 05:11:21;;;;;;;1.1;1;;;;;;;9.84;79.91406;95024.96;;;;
2020/11/16 05:12:21;;;;;;;1.1;1;;;;;;;9.84;79.91406;95024.96;;;;
2020/11/16 05:13:22;;;;;;;1.1;1;;;;;;;9.84;79.91406;95024.96;;;;
2020/11/16 05:14:24;;;;;;;1.1;1;;;;;;;9.84;79.91406;95024.96;;;;
2020/11/16 05:15:25;;;;;;;1.45;1.1;;;;;;;9.77;80.84863;95025.23;;;;
2020/11/16 05:16:26;;;;;;;1.45;1.1;;;;;;;9.77;80.84863;95025.23;;;;
2020/11/16 05:17:28;;;;;;;1.45;1.1;;;;;;;9.77;80.84863;95025.23;;;;
2020/11/16 05:18:29;;;;;;;1.45;1.1;;;;;;;9.77;80.84863;95025.23;;;;
2020/11/16 05:19:34;;;;;;;1.45;1.1;;;;;;;9.77;80.84863;95025.23;;;;
2020/11/16 05:20:34;;;;;;;1.45;1.1;;;;;;;9.77;80.84863;95025.23;;;;
2020/11/16 05:21:41;;;;;;;1.45;1.1;;;;;;;9.77;80.84863;95025.23;;;;
2020/11/16 05:22:42;;;;;;;1.45;1.1;;;;;;;9.77;80.84863;95025.23;;;;
2020/11/16 05:23:42;;;;;;;1.45;1.1;;;;;;;9.77;80.84863;95025.23;;;;
2020/11/16 05:24:43;;;;;;;1.45;1.1;;;;;;;9.77;80.84863;95025.23;;;;
2020/11/16 05:25:47;;;;;;;2.6;1.4;;;;;;;9.76;81.44531;95019.54;;;;
2020/11/16 05:26:51;;;;;;;2.6;1.4;;;;;;;9.76;81.44531;95019.54;;;;
2020/11/16 05:27:52;;;;;;;2.6;1.4;;;;;;;9.76;81.44531;95019.54;;;;
2020/11/16 05:28:52;;;;;;;2.6;1.4;;;;;;;9.76;81.44531;95019.54;;;;
2020/11/16 05:29:53;;;;;;;2.6;1.4;;;;;;;9.76;81.44531;95019.54;;;;
2020/11/16 05:30:54;;;;;;;2.6;1.4;;;;;;;9.76;81.44531;95019.54;;;;
2020/11/16 05:31:55;;;;;;;2.6;1.4;;;;;;;9.76;81.44531;95019.54;;;;
2020/11/16 05:32:55;;;;;;;2.6;1.4;;;;;;;9.76;81.44531;95019.54;;;;
2020/11/16 05:33:56;;;;;;;2.6;1.4;;;;;;;9.76;81.44531;95019.54;;;;
2020/11/16 05:34:56;;;;;;;2.6;1.4;;;;;;;9.76;81.44531;95019.54;;;;
2020/11/16 05:35:57;;;;;;;0.9;0.9;;;;;;;9.68;81.63379;95057.11;;;;
2020/11/16 05:37:00;;;;;;;0.9;0.9;;;;;;;9.68;81.63379;95057.11;;;;
2020/11/16 05:38:00;;;;;;;0.9;0.9;;;;;;;9.68;81.63379;95057.11;;;;
2020/11/16 05:39:02;;;;;;;0.9;0.9;;;;;;;9.68;81.63379;95057.11;;;;
2020/11/16 05:40:03;;;;;;;0.9;0.9;;;;;;;9.68;81.63379;95057.11;;;;
2020/11/16 05:41:03;;;;;;;0.9;0.9;;;;;;;9.68;81.63379;95057.11;;;;
2020/11/16 05:42:04;;;;;;;0.9;0.9;;;;;;;9.68;81.63379;95057.11;;;;
2020/11/16 05:43:05;;;;;;;0.9;0.9;;;;;;;9.68;81.63379;95057.11;;;;
2020/11/16 05:44:07;;;;;;;0.9;0.9;;;;;;;9.68;81.63379;95057.11;;;;
2020/11/16 05:45:10;;;;;;;0.9;0.9;;;;;;;9.68;81.63379;95057.11;;;;
2020/11/16 05:46:10;;;;;;;0.9;0.9;;;;;;;9.68;81.63379;95057.11;;;;
2020/11/16 05:47:11;;;;;;;1.1;1;;;;;;;9.65;82.21289;95077.39;;;;
2020/11/16 05:48:14;;;;;;;1.1;1;;;;;;;9.65;82.21289;95077.39;;;;
2020/11/16 05:49:24;;;;;;;1.1;1;;;;;;;9.65;82.21289;95077.39;;;;
2020/11/16 05:50:25;;;;;;;1.1;1;;;;;;;9.65;82.21289;95077.39;;;;
2020/11/16 05:51:26;;;;;;;1.1;1;;;;;;;9.65;82.21289;95077.39;;;;
2020/11/16 05:52:28;;;;;;;1.1;1;;;;;;;9.65;82.21289;95077.39;;;;
2020/11/16 05:53:29;;;;;;;1.1;1;;;;;;;9.65;82.21289;95077.39;;;;